createdAt,value
2022-12-23T00:03:59.123Z,7.66
2022-12-23T00:09:00.563Z,7.66
2022-12-23T00:14:22.063Z,7.68
2022-12-23T00:19:23.555Z,7.68
2022-12-23T00:24:24.871Z,7.65
2022-12-23T00:29:26.185Z,7.63
2022-12-23T00:34:27.549Z,7.62
2022-12-23T00:39:50.802Z,7.63
2022-12-23T00:45:15.392Z,7.56
2022-12-23T00:50:16.907Z,7.61
2022-12-23T00:55:18.363Z,7.60
2022-12-23T01:00:19.883Z,7.55
2022-12-23T01:05:41.455Z,7.56
2022-12-23T01:10:42.758Z,7.59
2022-12-23T01:15:44.165Z,7.70
2022-12-23T01:20:45.451Z,7.63
2022-12-23T01:25:48.131Z,7.61
2022-12-23T01:30:49.457Z,7.64
2022-12-23T01:35:50.749Z,7.68
2022-12-23T01:40:52.070Z,7.66
2022-12-23T01:45:53.447Z,7.75
2022-12-23T01:50:58.618Z,7.65
2022-12-23T01:55:59.891Z,7.61
2022-12-23T02:01:25.056Z,7.59
2022-12-23T02:06:47.082Z,7.62
2022-12-23T02:12:06.961Z,7.58
2022-12-23T02:17:28.667Z,7.53
2022-12-23T02:22:48.561Z,7.36
2022-12-23T02:28:00.619Z,7.36
2022-12-23T02:33:11.233Z,7.40
2022-12-23T02:38:16.064Z,7.33
2022-12-23T02:43:22.978Z,7.24
2022-12-23T02:48:24.274Z,7.28
2022-12-23T02:53:28.702Z,7.14
2022-12-23T02:58:32.176Z,6.90
2022-12-23T03:03:35.379Z,6.87
2022-12-23T03:08:41.547Z,6.95
2022-12-23T03:13:56.052Z,7.02
2022-12-23T03:18:57.352Z,7.05
2022-12-23T03:24:07.783Z,7.16
2022-12-23T03:29:13.521Z,7.10
2022-12-23T03:34:16.326Z,7.29
2022-12-23T03:39:20.178Z,7.23
2022-12-23T03:44:24.787Z,7.27
2022-12-23T03:49:29.834Z,7.31
2022-12-23T03:54:36.279Z,7.32
2022-12-23T03:59:43.133Z,7.32
2022-12-23T04:04:50.268Z,7.32
2022-12-23T04:09:52.710Z,7.32
2022-12-23T04:14:54.038Z,7.37
2022-12-23T04:19:55.432Z,7.41
2022-12-23T04:24:56.768Z,7.37
2022-12-23T04:29:58.101Z,7.42
2022-12-23T04:34:59.419Z,7.45
2022-12-23T04:40:00.739Z,7.49
2022-12-23T04:45:02.259Z,7.47
2022-12-23T04:50:04.091Z,7.45
2022-12-23T04:55:05.772Z,7.42
2022-12-23T05:00:07.439Z,7.46
2022-12-23T05:05:08.856Z,7.53
2022-12-23T05:10:10.454Z,7.67
2022-12-23T05:15:11.786Z,7.66
2022-12-23T05:20:13.099Z,7.64
2022-12-23T05:25:14.411Z,7.75
2022-12-23T05:30:15.776Z,8.00
2022-12-23T05:35:17.144Z,8.11
2022-12-23T05:40:23.743Z,8.12
2022-12-23T05:45:28.350Z,8.22
2022-12-23T05:50:29.707Z,8.23
2022-12-23T05:55:31.052Z,8.28
2022-12-23T06:00:32.376Z,8.22
2022-12-23T06:05:33.755Z,8.11
2022-12-23T06:10:35.093Z,8.08
2022-12-23T06:15:36.498Z,8.01
2022-12-23T06:20:37.841Z,7.88
2022-12-23T06:25:39.228Z,7.85
2022-12-23T06:30:40.599Z,7.83
2022-12-23T06:35:43.173Z,7.74
2022-12-23T06:40:44.555Z,7.60
2022-12-23T06:45:46.422Z,7.57
2022-12-23T06:50:47.757Z,7.61
2022-12-23T06:55:49.059Z,7.60
2022-12-23T07:00:50.375Z,7.65
2022-12-23T07:05:51.915Z,7.69
2022-12-23T07:10:59.822Z,7.61
2022-12-23T07:16:05.153Z,7.52
2022-12-23T07:21:10.239Z,7.62
2022-12-23T07:26:19.301Z,7.62
2022-12-23T07:31:20.681Z,7.60
2022-12-23T07:36:22.028Z,7.53
2022-12-23T07:41:23.355Z,7.50
2022-12-23T07:46:24.764Z,7.40
2022-12-23T07:51:26.130Z,7.23
2022-12-23T07:56:27.459Z,7.12
2022-12-23T08:01:28.840Z,7.03
2022-12-23T08:06:30.284Z,6.97
2022-12-23T08:11:31.603Z,6.89
2022-12-23T08:16:37.827Z,6.90
2022-12-23T08:21:42.898Z,6.94
2022-12-23T08:26:44.449Z,6.92
2022-12-23T08:31:45.735Z,6.90
2022-12-23T08:36:47.060Z,6.95
2022-12-23T08:41:48.532Z,6.98
2022-12-23T08:46:50.043Z,7.13
2022-12-23T08:51:51.808Z,7.21
2022-12-23T08:56:53.218Z,7.25
2022-12-23T09:01:54.652Z,7.31
2022-12-23T09:06:56.061Z,7.40
2022-12-23T09:11:57.859Z,7.40
2022-12-23T09:16:59.179Z,7.38
2022-12-23T09:22:00.526Z,7.45
2022-12-23T09:27:01.831Z,7.48
2022-12-23T09:32:03.140Z,7.58
2022-12-23T09:37:04.468Z,7.62
2022-12-23T09:42:24.490Z,7.61
2022-12-23T09:47:27.456Z,7.62
2022-12-23T09:52:42.920Z,7.64
2022-12-23T09:57:50.956Z,7.66
2022-12-23T10:03:03.115Z,7.71
2022-12-23T10:08:15.207Z,7.80
2022-12-23T10:13:23.967Z,7.92
2022-12-23T10:18:41.009Z,8.05
2022-12-23T10:23:44.169Z,8.13
2022-12-23T10:28:45.618Z,8.09
2022-12-23T10:33:51.689Z,8.07
2022-12-23T10:39:00.517Z,8.02
2022-12-23T10:44:13.756Z,8.03
2022-12-23T10:49:26.592Z,8.13
2022-12-23T10:54:33.163Z,8.19
2022-12-23T10:59:35.305Z,8.02
2022-12-23T11:04:38.512Z,7.91
2022-12-23T11:09:41.958Z,7.88
2022-12-23T11:14:53.756Z,7.90
2022-12-23T11:20:07.199Z,7.91
2022-12-23T11:25:27.484Z,7.92
2022-12-23T11:30:31.004Z,7.95
2022-12-23T11:35:33.413Z,7.93
2022-12-23T11:40:37.033Z,7.93
2022-12-23T11:45:38.706Z,8.00
2022-12-23T11:50:40.525Z,8.02
2022-12-23T11:55:46.732Z,7.98
2022-12-23T12:00:56.165Z,7.95
2022-12-23T12:05:59.087Z,8.04
2022-12-23T12:11:02.603Z,8.03
2022-12-23T12:16:09.966Z,8.02
2022-12-23T12:21:14.794Z,7.99
2022-12-23T12:26:23.129Z,8.01
2022-12-23T12:31:31.903Z,8.10
2022-12-23T12:36:36.298Z,8.16
2022-12-23T12:41:39.589Z,8.15
2022-12-23T12:46:46.548Z,8.16
2022-12-23T12:52:06.763Z,8.19
2022-12-23T12:57:13.072Z,8.20
2022-12-23T13:02:30.417Z,8.23
2022-12-23T13:07:46.900Z,8.23
2022-12-23T13:13:14.590Z,8.28
2022-12-23T13:18:35.708Z,8.40
2022-12-23T13:23:44.113Z,8.48
2022-12-23T13:29:09.406Z,8.44
2022-12-23T13:34:23.859Z,8.48
2022-12-23T13:40:00.791Z,8.51
2022-12-23T13:45:03.808Z,8.46
2022-12-23T13:50:05.230Z,8.52
2022-12-23T13:55:25.351Z,8.46
2022-12-23T14:00:31.529Z,8.46
2022-12-23T14:05:35.688Z,8.44
2022-12-23T14:10:38.971Z,8.50
2022-12-23T14:15:54.609Z,8.50
2022-12-23T14:21:14.522Z,8.50
2022-12-23T14:26:25.056Z,8.52
2022-12-23T14:31:28.989Z,8.52
2022-12-23T14:36:30.429Z,8.53
2022-12-23T14:41:38.801Z,8.48
2022-12-23T14:46:40.175Z,8.49
2022-12-23T14:51:41.689Z,8.48
2022-12-23T14:56:47.208Z,8.61
2022-12-23T15:01:50.061Z,8.65
2022-12-23T15:06:55.487Z,8.73
2022-12-23T15:11:58.486Z,8.78
2022-12-23T15:16:59.936Z,8.77
2022-12-23T15:22:17.220Z,8.79
2022-12-23T15:27:28.746Z,8.80
2022-12-23T15:32:30.590Z,8.69
2022-12-23T15:37:32.753Z,8.69
2022-12-23T15:42:35.577Z,8.73
2022-12-23T15:47:42.328Z,8.83
2022-12-23T15:52:45.150Z,8.89
2022-12-23T15:57:50.347Z,8.95
2022-12-23T16:03:02.287Z,8.99
2022-12-23T16:08:11.338Z,8.94
2022-12-23T16:13:17.196Z,8.93
2022-12-23T16:18:25.795Z,8.90
2022-12-23T16:23:31.327Z,8.79
2022-12-23T16:28:37.282Z,8.55
2022-12-23T16:33:48.299Z,8.40
2022-12-23T16:38:51.129Z,8.14
2022-12-23T16:43:53.157Z,7.85
2022-12-23T16:48:57.512Z,7.93
2022-12-23T16:53:58.873Z,7.74
2022-12-23T16:59:00.369Z,7.72
2022-12-23T17:04:01.712Z,7.65
2022-12-23T17:09:03.946Z,7.58
2022-12-23T17:14:10.409Z,7.85
2022-12-23T17:19:15.388Z,7.93
2022-12-23T17:24:19.682Z,7.84
2022-12-23T17:29:21.047Z,7.67
2022-12-23T17:34:23.766Z,7.71
2022-12-23T17:39:25.116Z,7.76
2022-12-23T17:44:26.444Z,7.76
2022-12-23T17:49:27.782Z,8.12
2022-12-23T17:54:29.114Z,8.24
2022-12-23T17:59:30.413Z,8.36
2022-12-23T18:04:31.789Z,8.92
2022-12-23T18:09:33.107Z,8.98
2022-12-23T18:14:34.669Z,9.08
2022-12-23T18:19:35.983Z,8.89
2022-12-23T18:24:37.332Z,8.97
2022-12-23T18:29:38.672Z,9.09
2022-12-23T18:34:40.253Z,9.46
2022-12-23T18:39:41.657Z,9.37
2022-12-23T18:44:43.699Z,9.63
2022-12-23T18:49:45.027Z,9.72
2022-12-23T18:54:46.384Z,9.67
2022-12-23T18:59:48.098Z,9.85
2022-12-23T19:04:49.436Z,9.43
2022-12-23T19:09:50.745Z,9.26
2022-12-23T19:14:52.048Z,9.36
2022-12-23T19:19:53.415Z,9.48
2022-12-23T19:25:05.498Z,9.49
2022-12-23T19:30:08.777Z,9.37
2022-12-23T19:35:13.666Z,9.26
2022-12-23T19:40:15.000Z,9.33
2022-12-23T19:45:17.140Z,9.26
2022-12-23T19:50:19.702Z,9.30
2022-12-23T19:55:21.013Z,9.45
2022-12-23T20:00:22.433Z,9.49
2022-12-23T20:05:23.740Z,9.62
2022-12-23T20:10:25.079Z,9.56
2022-12-23T20:15:26.400Z,10.05
2022-12-23T20:20:28.169Z,9.97
2022-12-23T20:25:29.498Z,9.77
2022-12-23T20:30:30.847Z,9.56
2022-12-23T20:35:32.160Z,9.54
2022-12-23T20:40:33.481Z,9.49
2022-12-23T20:45:34.878Z,9.49
2022-12-23T20:50:40.123Z,9.19
2022-12-23T20:55:41.514Z,8.99
2022-12-23T21:00:42.846Z,8.92
2022-12-23T21:05:44.331Z,8.82
2022-12-23T21:10:51.621Z,9.27
2022-12-23T21:15:53.039Z,9.19
2022-12-23T21:20:57.691Z,9.21
2022-12-23T21:26:10.819Z,9.18
2022-12-23T21:31:13.001Z,9.39
2022-12-23T21:36:20.048Z,9.40
2022-12-23T21:41:25.890Z,9.48
2022-12-23T21:46:27.989Z,9.41
2022-12-23T21:51:38.943Z,9.44
2022-12-23T21:56:41.888Z,9.58
2022-12-23T22:01:43.793Z,9.92
2022-12-23T22:06:45.544Z,10.03
2022-12-23T22:11:47.855Z,10.04
2022-12-23T22:16:49.365Z,9.85
2022-12-23T22:21:50.785Z,10.02
2022-12-23T22:26:52.110Z,10.20
2022-12-23T22:31:53.471Z,9.85
2022-12-23T22:36:54.812Z,9.97
2022-12-23T22:41:56.193Z,9.88
2022-12-23T22:46:57.495Z,9.97
2022-12-23T22:51:58.879Z,9.85
2022-12-23T22:57:00.185Z,9.82
2022-12-23T23:02:01.538Z,9.89
2022-12-23T23:07:02.967Z,9.97
2022-12-23T23:12:04.388Z,9.98
2022-12-23T23:17:05.720Z,10.05
2022-12-23T23:22:07.156Z,9.91
2022-12-23T23:27:08.846Z,9.61
2022-12-23T23:32:10.412Z,9.76
2022-12-23T23:37:11.748Z,9.65
2022-12-23T23:42:13.131Z,9.68
2022-12-23T23:47:14.676Z,9.65
2022-12-23T23:52:16.004Z,9.49
2022-12-23T23:57:17.386Z,9.25
